createdAt,value
2022-12-05T00:00:42.783Z,118.13
2022-12-05T00:03:16.227Z,128.18
2022-12-05T00:05:50.265Z,112.43
2022-12-05T00:08:23.691Z,104.80
2022-12-05T00:10:56.956Z,104.57
2022-12-05T00:13:30.446Z,113.40
2022-12-05T00:16:09.177Z,119.63
2022-12-05T00:18:43.044Z,119.88
2022-12-05T00:21:18.645Z,118.00
2022-12-05T00:23:53.404Z,99.95
2022-12-05T00:26:27.477Z,119.07
2022-12-05T00:29:01.336Z,127.30
2022-12-05T00:31:36.307Z,111.72
2022-12-05T00:34:10.126Z,109.20
2022-12-05T00:36:43.377Z,118.22
2022-12-05T00:39:16.812Z,119.03
2022-12-05T00:41:50.077Z,119.55
2022-12-05T00:44:23.553Z,115.72
2022-12-05T00:46:58.354Z,143.65
2022-12-05T00:49:31.622Z,141.93
2022-12-05T00:52:05.974Z,131.15
2022-12-05T00:54:40.553Z,131.95
2022-12-05T00:57:13.819Z,128.32
2022-12-05T00:59:47.365Z,92.47
2022-12-05T01:02:22.167Z,127.50
2022-12-05T01:04:55.670Z,104.30
2022-12-05T01:07:28.948Z,114.90
2022-12-05T01:10:02.603Z,114.22
2022-12-05T01:12:36.039Z,127.78
2022-12-05T01:15:10.904Z,109.93
2022-12-05T01:17:45.702Z,117.57
2022-12-05T01:20:19.288Z,122.38
2022-12-05T01:22:53.470Z,116.60
2022-12-05T01:25:26.950Z,122.25
2022-12-05T01:28:00.263Z,119.05
2022-12-05T01:30:33.670Z,100.85
2022-12-05T01:33:08.898Z,109.88
2022-12-05T01:35:43.525Z,103.13
2022-12-05T01:38:16.888Z,115.97
2022-12-05T01:40:50.404Z,106.50
2022-12-05T01:43:23.881Z,104.50
2022-12-05T01:45:57.456Z,97.60
2022-12-05T01:48:36.775Z,115.03
2022-12-05T01:51:10.069Z,91.53
2022-12-05T01:53:43.521Z,97.28
2022-12-05T01:56:18.540Z,120.93
2022-12-05T01:58:53.884Z,103.78
2022-12-05T02:01:27.374Z,91.63
2022-12-05T02:04:03.298Z,80.80
2022-12-05T02:06:37.946Z,118.78
2022-12-05T02:09:13.680Z,109.05
2022-12-05T02:11:54.346Z,104.47
2022-12-05T02:14:33.639Z,104.70
2022-12-05T02:17:14.299Z,94.25
2022-12-05T02:20:04.793Z,101.32
2022-12-05T02:23:14.664Z,90.47
2022-12-05T02:26:35.061Z,109.25
2022-12-05T02:29:49.296Z,113.10
2022-12-05T02:32:34.600Z,80.00
2022-12-05T02:35:17.293Z,93.35
2022-12-05T02:37:57.339Z,99.95
2022-12-05T02:40:37.361Z,89.80
2022-12-05T02:43:14.543Z,95.05
2022-12-05T02:45:53.176Z,91.38
2022-12-05T02:48:29.785Z,94.45
2022-12-05T02:51:05.615Z,99.95
2022-12-05T02:53:39.749Z,100.18
2022-12-05T02:56:13.853Z,135.68
2022-12-05T02:58:52.040Z,102.28
2022-12-05T03:01:30.245Z,83.00
2022-12-05T03:04:06.375Z,105.90
2022-12-05T03:06:43.635Z,95.60
2022-12-05T03:09:21.458Z,98.28
2022-12-05T03:12:01.544Z,106.88
2022-12-05T03:14:38.584Z,86.18
2022-12-05T03:17:19.080Z,98.93
2022-12-05T03:19:58.917Z,71.40
2022-12-05T03:22:37.712Z,75.22
2022-12-05T03:25:11.854Z,68.18
2022-12-05T03:27:51.035Z,75.18
2022-12-05T03:30:24.840Z,64.72
2022-12-05T03:33:06.872Z,47.65
2022-12-05T03:35:45.796Z,84.43
2022-12-05T03:38:27.426Z,59.78
2022-12-05T03:41:09.373Z,54.13
2022-12-05T03:43:48.984Z,52.53
2022-12-05T03:46:27.847Z,53.28
2022-12-05T03:49:08.883Z,53.45
2022-12-05T03:51:51.403Z,46.22
2022-12-05T03:54:27.623Z,40.25
2022-12-05T03:57:06.806Z,35.45
2022-12-05T03:59:45.620Z,42.13
2022-12-05T04:02:24.829Z,44.05
2022-12-05T04:05:05.346Z,39.33
2022-12-05T04:07:42.202Z,39.72
2022-12-05T04:10:21.193Z,35.00
2022-12-05T04:12:58.424Z,36.35
2022-12-05T04:15:53.389Z,34.55
2022-12-05T04:18:27.488Z,30.90
2022-12-05T04:21:22.174Z,36.10
2022-12-05T04:24:09.522Z,34.03
2022-12-05T04:26:47.954Z,32.88
2022-12-05T04:29:28.240Z,35.97
2022-12-05T04:32:09.862Z,35.30
2022-12-05T04:34:47.296Z,25.42
2022-12-05T04:37:26.349Z,39.50
2022-12-05T04:40:04.012Z,35.45
2022-12-05T04:42:40.242Z,25.48
2022-12-05T04:45:16.623Z,28.02
2022-12-05T04:47:54.669Z,32.47
2022-12-05T04:50:32.837Z,30.65
2022-12-05T04:53:08.280Z,33.90
2022-12-05T04:55:45.290Z,29.67
2022-12-05T04:58:21.389Z,32.88
2022-12-05T05:01:00.466Z,30.80
2022-12-05T05:03:40.792Z,28.40
2022-12-05T05:06:15.456Z,31.05
2022-12-05T05:08:51.629Z,34.47
2022-12-05T05:11:26.456Z,31.23
2022-12-05T05:14:00.566Z,25.50
2022-12-05T05:16:37.636Z,36.25
2022-12-05T05:19:13.064Z,34.20
2022-12-05T05:21:46.353Z,36.67
2022-12-05T05:24:23.728Z,31.35
2022-12-05T05:26:57.656Z,34.45
2022-12-05T05:29:31.383Z,28.60
2022-12-05T05:32:04.674Z,41.03
2022-12-05T05:34:38.259Z,41.47
2022-12-05T05:37:11.504Z,41.00
2022-12-05T05:39:46.546Z,37.05
2022-12-05T05:42:20.109Z,35.25
2022-12-05T05:44:53.367Z,28.30
2022-12-05T05:47:26.801Z,33.88
2022-12-05T05:50:00.281Z,31.85
2022-12-05T05:52:34.747Z,37.15
2022-12-05T05:55:11.072Z,40.85
2022-12-05T05:57:44.350Z,47.33
2022-12-05T06:00:18.194Z,39.88
2022-12-05T06:02:51.768Z,42.88
2022-12-05T06:05:25.478Z,50.97
2022-12-05T06:07:59.417Z,39.38
2022-12-05T06:10:34.508Z,36.70
2022-12-05T06:13:07.778Z,34.92
2022-12-05T06:15:41.407Z,40.58
2022-12-05T06:18:14.738Z,59.80
2022-12-05T06:20:54.062Z,36.42
2022-12-05T06:23:28.107Z,45.30
2022-12-05T06:26:03.912Z,50.70
2022-12-05T06:28:37.719Z,62.85
2022-12-05T06:31:12.394Z,78.78
2022-12-05T06:33:46.550Z,50.35
2022-12-05T06:36:22.571Z,21.00
2022-12-05T06:38:55.849Z,16.50
2022-12-05T06:41:30.547Z,19.42
2022-12-05T06:44:04.008Z,21.48
2022-12-05T06:46:37.483Z,18.58
2022-12-05T06:49:11.786Z,14.63
2022-12-05T06:51:45.397Z,26.65
2022-12-05T06:54:18.655Z,25.33
2022-12-05T06:56:53.462Z,27.30
2022-12-05T06:59:26.803Z,45.28
2022-12-05T07:02:00.642Z,36.92
2022-12-05T07:04:33.983Z,28.92
2022-12-05T07:07:07.286Z,29.08
2022-12-05T07:09:54.045Z,26.73
2022-12-05T07:12:28.692Z,32.25
2022-12-05T07:15:02.271Z,35.63
2022-12-05T07:17:37.737Z,33.33
2022-12-05T07:20:12.796Z,33.63
2022-12-05T07:22:46.624Z,30.52
2022-12-05T07:25:22.533Z,35.10
2022-12-05T07:27:57.222Z,33.63
2022-12-05T07:30:30.757Z,36.83
2022-12-05T07:33:04.809Z,40.22
2022-12-05T07:35:38.106Z,33.72
2022-12-05T07:38:11.385Z,34.83
2022-12-05T07:40:44.628Z,24.02
2022-12-05T07:43:19.431Z,32.92
2022-12-05T07:45:52.792Z,20.50
2022-12-05T07:48:26.240Z,16.48
2022-12-05T07:51:03.643Z,20.27
2022-12-05T07:53:37.825Z,20.73
2022-12-05T07:56:14.353Z,31.73
2022-12-05T07:58:50.595Z,31.15
2022-12-05T08:01:25.763Z,26.02
2022-12-05T08:04:00.545Z,16.33
2022-12-05T08:06:35.902Z,10.23
2022-12-05T08:09:09.217Z,10.88
2022-12-05T08:11:42.572Z,8.98
2022-12-05T08:14:17.361Z,9.90
2022-12-05T08:16:50.727Z,9.32
2022-12-05T08:19:24.028Z,7.60
2022-12-05T08:21:57.336Z,9.10
2022-12-05T08:24:30.633Z,10.75
2022-12-05T08:27:05.567Z,16.50
2022-12-05T08:29:40.307Z,10.90
2022-12-05T08:32:13.616Z,12.68
2022-12-05T08:34:47.363Z,10.90
2022-12-05T08:37:20.646Z,10.10
2022-12-05T08:39:53.943Z,13.65
2022-12-05T08:42:27.252Z,6.78
2022-12-05T08:45:01.969Z,9.48
2022-12-05T08:47:35.669Z,7.97
2022-12-05T08:50:10.031Z,8.30
2022-12-05T08:52:43.393Z,6.07
2022-12-05T08:55:16.803Z,8.18
2022-12-05T08:57:50.091Z,8.68
2022-12-05T09:00:25.016Z,7.43
2022-12-05T09:02:58.442Z,6.97
2022-12-05T09:05:32.472Z,9.68
2022-12-05T09:08:06.574Z,10.45
2022-12-05T09:10:40.042Z,6.90
2022-12-05T09:13:14.271Z,5.40
2022-12-05T09:15:49.637Z,6.18
2022-12-05T09:18:23.015Z,7.03
2022-12-05T09:20:56.294Z,6.07
2022-12-05T09:23:29.596Z,5.97
2022-12-05T09:26:03.131Z,5.90
2022-12-05T09:28:36.664Z,8.07
2022-12-05T09:31:13.684Z,7.50
2022-12-05T09:33:48.017Z,5.90
2022-12-05T09:36:23.194Z,9.55
2022-12-05T09:39:00.182Z,5.07
2022-12-05T09:42:08.001Z,6.05
2022-12-05T09:44:50.615Z,5.72
2022-12-05T09:47:35.085Z,5.32
2022-12-05T09:50:17.252Z,6.88
2022-12-05T09:53:07.045Z,5.43
2022-12-05T09:55:53.801Z,4.78
2022-12-05T09:58:31.403Z,5.22
2022-12-05T10:01:20.723Z,4.30
2022-12-05T10:04:08.005Z,6.55
2022-12-05T10:06:46.218Z,6.30
2022-12-05T10:09:36.622Z,4.45
2022-12-05T10:12:21.207Z,6.80
2022-12-05T10:15:04.811Z,6.13
2022-12-05T10:17:42.238Z,4.88
2022-12-05T10:20:32.265Z,5.93
2022-12-05T10:23:18.773Z,3.78
2022-12-05T10:26:06.791Z,5.72
2022-12-05T10:28:48.834Z,5.13
2022-12-05T10:31:26.761Z,5.93
2022-12-05T10:34:05.039Z,3.95
2022-12-05T10:36:39.765Z,7.65
2022-12-05T10:39:13.056Z,4.38
2022-12-05T10:41:46.359Z,14.18
2022-12-05T10:44:19.976Z,6.97
2022-12-05T10:46:53.311Z,7.15
2022-12-05T10:49:28.062Z,7.18
2022-12-05T10:52:02.912Z,7.18
2022-12-05T10:54:43.928Z,6.97
2022-12-05T10:57:25.502Z,7.50
2022-12-05T10:59:58.885Z,7.47
2022-12-05T11:02:34.661Z,4.60
2022-12-05T11:05:08.528Z,5.15
2022-12-05T11:07:49.765Z,6.20
2022-12-05T11:10:27.507Z,3.28
2022-12-05T11:13:02.248Z,4.82
2022-12-05T11:15:45.191Z,5.00
2022-12-05T11:18:26.397Z,3.90
2022-12-05T11:21:11.620Z,5.68
2022-12-05T11:23:46.571Z,5.60
2022-12-05T11:26:33.612Z,6.72
2022-12-05T11:29:31.134Z,4.50
2022-12-05T11:32:07.090Z,6.45
2022-12-05T11:34:48.533Z,4.03
2022-12-05T11:37:25.732Z,7.53
2022-12-05T11:40:02.433Z,4.55
2022-12-05T11:42:46.173Z,5.43
2022-12-05T11:45:52.492Z,9.27
2022-12-05T11:48:45.374Z,5.63
2022-12-05T11:54:30.630Z,4.80
2022-12-05T11:57:22.344Z,7.18
2022-12-05T12:00:18.785Z,6.13
2022-12-05T12:03:20.244Z,7.88
2022-12-05T12:06:05.959Z,5.93
2022-12-05T12:08:47.394Z,7.15
2022-12-05T12:11:29.732Z,7.07
2022-12-05T12:14:11.339Z,7.43
2022-12-05T12:16:54.838Z,6.43
2022-12-05T12:19:44.809Z,9.93
2022-12-05T12:22:38.860Z,10.45
2022-12-05T12:28:06.389Z,7.07
2022-12-05T12:33:30.727Z,5.85
2022-12-05T12:36:15.464Z,8.65
2022-12-05T12:39:15.815Z,10.73
2022-12-05T12:42:05.531Z,6.30
2022-12-05T12:45:03.642Z,7.30
2022-12-05T12:47:49.845Z,9.77
2022-12-05T12:50:25.410Z,6.97
2022-12-05T12:53:28.789Z,9.43
2022-12-05T12:56:12.320Z,5.78
2022-12-05T12:58:52.017Z,5.63
2022-12-05T13:01:34.993Z,5.93
2022-12-05T13:04:14.880Z,5.20
2022-12-05T13:06:52.509Z,9.10
2022-12-05T13:09:31.355Z,6.03
2022-12-05T13:12:11.223Z,8.07
2022-12-05T13:14:53.000Z,8.23
2022-12-05T13:17:26.605Z,7.70
2022-12-05T13:20:02.150Z,7.50
2022-12-05T13:22:36.056Z,7.00
2022-12-05T13:25:15.928Z,6.70
2022-12-05T13:27:58.040Z,4.80
2022-12-05T13:30:32.596Z,6.22
2022-12-05T13:33:09.832Z,7.95
2022-12-05T13:36:02.016Z,7.20
2022-12-05T13:38:57.736Z,4.70
2022-12-05T13:41:59.584Z,7.20
2022-12-05T13:44:38.008Z,5.65
2022-12-05T13:47:25.892Z,6.25
2022-12-05T13:50:05.539Z,10.63
2022-12-05T13:52:48.799Z,8.57
2022-12-05T13:55:33.874Z,5.85
2022-12-05T13:58:46.763Z,9.05
2022-12-05T14:01:55.374Z,6.75
2022-12-05T14:04:54.274Z,8.73
2022-12-05T14:07:46.148Z,7.43
2022-12-05T14:10:23.385Z,7.20
2022-12-05T14:12:58.015Z,8.48
2022-12-05T14:15:34.727Z,8.98
2022-12-05T14:18:15.470Z,8.20
2022-12-05T14:20:55.151Z,10.70
2022-12-05T14:23:55.067Z,9.40
2022-12-05T14:26:50.943Z,11.13
2022-12-05T14:29:48.905Z,9.50
2022-12-05T14:32:26.385Z,9.68
2022-12-05T14:35:05.935Z,9.70
2022-12-05T14:37:45.569Z,11.93
2022-12-05T14:43:04.358Z,9.48
2022-12-05T14:45:42.056Z,6.90
2022-12-05T14:48:29.633Z,11.10
2022-12-05T14:51:03.355Z,8.48
2022-12-05T14:53:42.925Z,12.25
2022-12-05T14:56:21.583Z,7.30
2022-12-05T14:58:59.813Z,12.45
2022-12-05T15:01:36.656Z,11.38
2022-12-05T15:04:20.312Z,13.45
2022-12-05T15:06:58.791Z,8.20
2022-12-05T15:10:05.153Z,10.52
2022-12-05T15:12:46.681Z,8.80
2022-12-05T15:15:25.670Z,9.73
2022-12-05T15:18:05.019Z,8.70
2022-12-05T15:20:45.093Z,9.75
2022-12-05T15:23:41.059Z,10.07
2022-12-05T15:29:24.449Z,8.50
2022-12-05T15:32:00.074Z,9.60
2022-12-05T15:34:38.437Z,13.13
2022-12-05T15:37:14.920Z,7.55
2022-12-05T15:39:53.734Z,9.52
2022-12-05T15:42:30.440Z,8.35
2022-12-05T15:45:24.338Z,9.80
2022-12-05T15:48:11.283Z,7.82
2022-12-05T15:50:47.079Z,7.70
2022-12-05T15:53:30.869Z,12.50
2022-12-05T15:56:07.964Z,10.20
2022-12-05T15:58:45.101Z,7.70
2022-12-05T16:01:23.074Z,10.02
2022-12-05T16:03:59.791Z,9.52
2022-12-05T16:06:38.366Z,7.07
2022-12-05T16:09:17.799Z,7.65
2022-12-05T16:11:53.734Z,10.52
2022-12-05T16:17:28.425Z,12.15
2022-12-05T16:20:13.798Z,14.68
2022-12-05T16:22:50.001Z,11.55
2022-12-05T16:25:26.666Z,4.63
2022-12-05T16:28:03.905Z,8.10
2022-12-05T16:30:38.403Z,12.45
2022-12-05T16:33:16.826Z,8.18
2022-12-05T16:35:50.719Z,8.27
2022-12-05T16:38:26.879Z,6.22
2022-12-05T16:41:02.033Z,8.88
2022-12-05T16:43:46.496Z,7.72
2022-12-05T16:46:43.995Z,9.25
2022-12-05T16:49:34.406Z,9.07
2022-12-05T16:52:15.451Z,15.57
2022-12-05T16:54:50.596Z,7.70
2022-12-05T16:57:23.893Z,9.88
2022-12-05T17:00:01.435Z,31.02
2022-12-05T17:02:35.026Z,17.73
2022-12-05T17:05:14.853Z,12.70
2022-12-05T17:07:48.262Z,8.73
2022-12-05T17:10:21.638Z,8.15
2022-12-05T17:12:55.217Z,10.75
2022-12-05T17:15:28.563Z,15.48
2022-12-05T17:18:02.371Z,12.82
2022-12-05T17:20:41.273Z,10.68
2022-12-05T17:23:15.993Z,13.82
2022-12-05T17:25:51.832Z,77.32
2022-12-05T17:28:26.129Z,60.15
2022-12-05T17:30:59.407Z,61.03
2022-12-05T17:33:32.801Z,45.70
2022-12-05T17:36:07.910Z,70.95
2022-12-05T17:38:41.373Z,47.65
2022-12-05T17:41:18.446Z,28.83
2022-12-05T17:43:52.350Z,28.73
2022-12-05T17:46:25.655Z,31.05
2022-12-05T17:48:59.774Z,22.40
2022-12-05T17:51:40.693Z,25.65
2022-12-05T17:54:26.730Z,30.58
2022-12-05T17:57:00.153Z,23.60
2022-12-05T17:59:34.704Z,16.15
2022-12-05T18:02:08.372Z,16.48
2022-12-05T18:04:41.669Z,20.63
2022-12-05T18:07:16.822Z,20.05
2022-12-05T18:09:50.126Z,18.13
2022-12-05T18:12:24.165Z,20.63
2022-12-05T18:14:57.823Z,16.38
2022-12-05T18:17:31.520Z,12.35
2022-12-05T18:20:05.921Z,13.93
2022-12-05T18:22:40.605Z,20.40
2022-12-05T18:25:13.898Z,18.80
2022-12-05T18:27:47.277Z,24.85
2022-12-05T18:30:20.769Z,27.50
2022-12-05T18:32:54.095Z,28.25
2022-12-05T18:35:41.193Z,31.88
2022-12-05T18:38:15.831Z,28.48
2022-12-05T18:40:49.134Z,23.63
2022-12-05T18:43:22.413Z,19.73
2022-12-05T18:45:57.209Z,27.30
2022-12-05T18:48:39.396Z,11.07
2022-12-05T18:51:15.848Z,17.02
2022-12-05T18:53:53.219Z,34.30
2022-12-05T18:56:28.944Z,26.13
2022-12-05T18:59:05.308Z,41.50
2022-12-05T19:01:41.898Z,38.72
2022-12-05T19:04:17.502Z,36.88
2022-12-05T19:06:53.126Z,50.53
2022-12-05T19:09:30.043Z,26.80
2022-12-05T19:12:03.352Z,23.38
2022-12-05T19:14:37.888Z,28.95
2022-12-05T19:17:11.271Z,31.15
2022-12-05T19:19:45.052Z,33.45
2022-12-05T19:22:18.328Z,37.20
2022-12-05T19:24:53.301Z,40.38
2022-12-05T19:27:26.603Z,41.85
2022-12-05T19:30:03.921Z,47.90
2022-12-05T19:32:41.421Z,80.07
2022-12-05T19:35:14.956Z,72.30
2022-12-05T19:37:48.278Z,113.43
2022-12-05T19:40:22.954Z,129.57
2022-12-05T19:42:56.254Z,67.93
2022-12-05T19:45:29.599Z,60.97
2022-12-05T19:48:02.887Z,57.15
2022-12-05T19:50:36.197Z,44.97
2022-12-05T19:53:12.281Z,61.22
2022-12-05T19:55:46.993Z,52.05
2022-12-05T19:58:20.288Z,39.42
2022-12-05T20:00:53.564Z,39.55
2022-12-05T20:03:26.909Z,19.38
2022-12-05T20:06:01.015Z,20.90
2022-12-05T20:08:35.759Z,13.00
2022-12-05T20:11:12.508Z,7.60
2022-12-05T20:13:47.666Z,8.40
2022-12-05T20:16:22.808Z,10.25
2022-12-05T20:18:58.234Z,8.52
2022-12-05T20:21:33.496Z,6.57
2022-12-05T20:24:08.323Z,14.88
2022-12-05T20:26:44.683Z,10.80
2022-12-05T20:29:17.982Z,11.98
2022-12-05T20:31:56.728Z,11.63
2022-12-05T20:34:30.191Z,7.53
2022-12-05T20:37:03.489Z,9.93
2022-12-05T20:39:36.736Z,8.88
2022-12-05T20:42:11.518Z,6.93
2022-12-05T20:44:45.264Z,9.38
2022-12-05T20:47:18.560Z,10.90
2022-12-05T20:49:52.183Z,9.82
2022-12-05T20:52:25.444Z,8.52
2022-12-05T20:54:58.685Z,11.65
2022-12-05T20:57:34.121Z,11.50
2022-12-05T21:00:09.010Z,10.32
2022-12-05T21:02:42.332Z,11.32
2022-12-05T21:05:15.723Z,10.48
2022-12-05T21:07:49.248Z,11.43
2022-12-05T21:10:22.613Z,10.60
2022-12-05T21:12:57.245Z,11.95
2022-12-05T21:15:30.530Z,10.00
2022-12-05T21:18:03.828Z,11.40
2022-12-05T21:20:41.938Z,8.15
2022-12-05T21:23:15.751Z,10.85
2022-12-05T21:25:49.074Z,9.05
2022-12-05T21:28:23.894Z,9.30
2022-12-05T21:30:57.215Z,9.43
2022-12-05T21:33:30.601Z,8.63
2022-12-05T21:36:04.156Z,14.30
2022-12-05T21:38:37.573Z,11.07
2022-12-05T21:41:11.338Z,8.05
2022-12-05T21:43:50.984Z,10.70
2022-12-05T21:46:27.642Z,10.43
2022-12-05T21:49:01.444Z,9.82
2022-12-05T21:51:34.806Z,9.18
2022-12-05T21:54:08.124Z,8.38
2022-12-05T21:56:42.092Z,12.07
2022-12-05T21:59:16.774Z,8.23
2022-12-05T22:01:51.275Z,8.45
2022-12-05T22:04:24.678Z,11.05
2022-12-05T22:06:59.061Z,6.50
2022-12-05T22:09:32.315Z,7.53
2022-12-05T22:12:06.396Z,8.93
2022-12-05T22:14:41.072Z,7.63
2022-12-05T22:17:14.346Z,7.60
2022-12-05T22:19:47.609Z,8.38
2022-12-05T22:22:20.887Z,8.18
2022-12-05T22:24:54.155Z,7.05
2022-12-05T22:27:27.426Z,8.15
2022-12-05T22:30:02.326Z,10.52
2022-12-05T22:32:35.717Z,5.82
2022-12-05T22:35:09.431Z,8.15
2022-12-05T22:37:42.717Z,10.80
2022-12-05T22:40:16.195Z,8.25
2022-12-05T22:42:49.834Z,9.95
2022-12-05T22:45:24.498Z,8.25
2022-12-05T22:47:58.015Z,8.43
2022-12-05T22:50:31.340Z,6.03
2022-12-05T22:53:04.687Z,6.45
2022-12-05T22:55:38.013Z,7.70
2022-12-05T22:58:11.532Z,12.45
2022-12-05T23:00:47.192Z,7.78
2022-12-05T23:03:29.344Z,5.18
2022-12-05T23:06:21.191Z,6.43
2022-12-05T23:08:54.391Z,6.35
2022-12-05T23:11:29.813Z,7.15
2022-12-05T23:14:03.069Z,4.57
2022-12-05T23:16:37.819Z,6.72
2022-12-05T23:19:11.089Z,5.75
2022-12-05T23:21:44.233Z,6.65
2022-12-05T23:24:17.370Z,7.35
2022-12-05T23:26:50.624Z,7.50
2022-12-05T23:29:23.945Z,5.55
2022-12-05T23:31:58.502Z,6.93
2022-12-05T23:34:31.695Z,8.15
2022-12-05T23:37:05.031Z,6.28
2022-12-05T23:39:38.414Z,5.95
2022-12-05T23:42:15.153Z,7.55
2022-12-05T23:44:48.645Z,6.75
2022-12-05T23:47:23.211Z,5.82
2022-12-05T23:49:56.748Z,7.45
2022-12-05T23:52:30.001Z,4.18
2022-12-05T23:55:03.199Z,5.05
2022-12-05T23:57:36.423Z,6.35
